Time;durP1;ratioP1;P1;durP2;ratioP2;P2;SDS_P1;SDS_P2;PMS_P1;PMS_P2;Temp;Humidity;BMP_temperature;BMP_pressure;BME280_temperature;BME280_humidity;BME280_pressure;Samples;Min_cycle;Max_cycle;Signal;HPM_P1;HPM_P2
2021/11/29 00:00:24;;;;;;;25.63;9.50;;;1.40;97.30;;;;;;4974957;28;20324;-82
2021/11/29 00:02:57;;;;;;;29.30;9.40;;;1.40;97.30;;;;;;4974858;28;20183;-83
2021/11/29 00:05:24;;;;;;;21.50;8.70;;;1.40;97.30;;;;;;4975120;28;20417;-82
2021/11/29 00:07:50;;;;;;;24.03;10.57;;;1.50;97.30;;;;;;4974483;28;20457;-83
2021/11/29 00:10:16;;;;;;;18.20;8.30;;;1.50;97.30;;;;;;4974667;28;20417;-82
2021/11/29 00:12:42;;;;;;;18.13;8.87;;;1.50;97.30;;;;;;4974828;28;20418;-82
2021/11/29 00:15:10;;;;;;;20.13;8.07;;;1.50;97.30;;;;;;4974464;28;20414;-83
2021/11/29 00:17:36;;;;;;;21.17;8.97;;;1.50;97.30;;;;;;4976671;28;20182;-83
2021/11/29 00:20:05;;;;;;;22.80;7.80;;;1.50;97.30;;;;;;4975505;28;20430;-83
2021/11/29 00:22:31;;;;;;;26.40;8.90;;;1.50;97.30;;;;;;4975388;28;20185;-83
2021/11/29 00:24:57;;;;;;;22.23;9.43;;;1.50;97.30;;;;;;4975022;28;20524;-83
2021/11/29 00:27:22;;;;;;;15.70;7.83;;;1.50;97.30;;;;;;4974867;28;20213;-83
2021/11/29 00:29:48;;;;;;;19.57;8.07;;;1.50;97.30;;;;;;4974507;28;20655;-83
2021/11/29 00:32:14;;;;;;;16.27;7.30;;;1.50;97.30;;;;;;4975006;28;20187;-83
2021/11/29 00:34:39;;;;;;;16.93;6.93;;;1.50;97.30;;;;;;4974955;28;20273;-83
2021/11/29 00:37:05;;;;;;;14.23;7.57;;;1.50;97.30;;;;;;4974041;28;20212;-82
2021/11/29 00:39:31;;;;;;;19.57;8.30;;;1.50;97.30;;;;;;4974454;28;20277;-83
2021/11/29 00:41:57;;;;;;;18.53;7.60;;;1.50;97.30;;;;;;4974685;28;20422;-83
2021/11/29 00:44:26;;;;;;;17.53;8.40;;;1.50;97.30;;;;;;4974240;28;20457;-83
2021/11/29 00:46:52;;;;;;;17.20;8.27;;;1.50;97.30;;;;;;4973917;28;20477;-83
2021/11/29 00:49:18;;;;;;;17.43;7.63;;;1.50;97.30;;;;;;4974156;28;20410;-82
2021/11/29 00:51:43;;;;;;;27.00;7.90;;;1.50;97.30;;;;;;4974394;28;20480;-81
2021/11/29 00:54:09;;;;;;;23.47;9.20;;;1.50;97.30;;;;;;4974397;28;20622;-83
2021/11/29 00:56:34;;;;;;;21.17;8.03;;;1.50;97.30;;;;;;4974250;28;20638;-83
2021/11/29 00:59:00;;;;;;;18.70;7.27;;;1.50;97.30;;;;;;4974698;28;20182;-83
2021/11/29 01:01:26;;;;;;;21.43;8.30;;;1.60;97.30;;;;;;4974125;28;20236;-83
2021/11/29 01:03:51;;;;;;;20.13;9.20;;;1.60;97.30;;;;;;4974559;28;20181;-83
2021/11/29 01:06:18;;;;;;;17.93;7.67;;;1.60;97.30;;;;;;4974470;28;20249;-82
2021/11/29 01:08:43;;;;;;;24.33;9.80;;;1.60;97.30;;;;;;4974756;28;20780;-83
2021/11/29 01:11:09;;;;;;;16.83;8.13;;;1.70;97.30;;;;;;4974958;28;20414;-83
2021/11/29 01:13:37;;;;;;;21.03;9.13;;;1.70;97.30;;;;;;4974198;28;20186;-82
2021/11/29 01:16:03;;;;;;;18.63;8.10;;;1.70;97.30;;;;;;4974690;28;20510;-83
2021/11/29 01:18:29;;;;;;;23.83;10.10;;;1.70;97.30;;;;;;4975785;28;20947;-83
2021/11/29 01:20:55;;;;;;;22.93;9.13;;;1.70;97.30;;;;;;4975638;28;20425;-84
2021/11/29 01:23:21;;;;;;;14.03;6.90;;;1.70;97.30;;;;;;4975026;28;20182;-84
2021/11/29 01:25:48;;;;;;;20.30;8.53;;;1.80;97.30;;;;;;4976890;28;20238;-84
2021/11/29 01:28:14;;;;;;;21.90;8.40;;;1.70;97.30;;;;;;4980119;28;20974;-84
2021/11/29 01:30:40;;;;;;;19.30;8.20;;;1.70;97.30;;;;;;4995093;28;20449;-84
2021/11/29 01:33:06;;;;;;;23.27;7.97;;;1.60;97.30;;;;;;4995308;28;20479;-84
2021/11/29 01:35:32;;;;;;;19.27;8.53;;;1.60;97.30;;;;;;4984879;28;20535;-84
2021/11/29 01:37:58;;;;;;;23.63;9.07;;;1.60;97.30;;;;;;4975755;28;20427;-84
2021/11/29 01:40:24;;;;;;;18.67;8.63;;;1.60;97.30;;;;;;4978552;28;20418;-84
2021/11/29 01:42:54;;;;;;;19.67;8.87;;;1.60;97.30;;;;;;4981357;28;20224;-84
2021/11/29 01:45:19;;;;;;;20.57;8.47;;;1.60;97.30;;;;;;4979154;28;20491;-84
2021/11/29 01:47:45;;;;;;;26.40;9.87;;;1.60;97.30;;;;;;4979611;28;20551;-84
2021/11/29 01:50:11;;;;;;;20.53;7.90;;;1.60;97.30;;;;;;4979865;28;20708;-84
2021/11/29 01:52:36;;;;;;;21.83;9.40;;;1.60;97.30;;;;;;4979567;28;20232;-84
2021/11/29 01:55:02;;;;;;;22.77;8.07;;;1.60;97.30;;;;;;4979321;28;20242;-84
2021/11/29 01:57:28;;;;;;;18.87;7.90;;;1.60;97.30;;;;;;4979332;28;20205;-84
2021/11/29 01:59:54;;;;;;;21.27;9.33;;;1.60;97.30;;;;;;4979543;28;20449;-84
2021/11/29 02:02:20;;;;;;;19.00;8.60;;;1.60;97.30;;;;;;4979374;28;20599;-84
2021/11/29 02:04:46;;;;;;;17.80;8.67;;;1.60;97.30;;;;;;4980752;28;20243;-84
2021/11/29 02:07:11;;;;;;;22.43;9.30;;;1.60;97.30;;;;;;4978990;28;20516;-84
2021/11/29 02:09:37;;;;;;;23.83;9.77;;;1.60;97.30;;;;;;4979185;28;20414;-84
2021/11/29 02:12:03;;;;;;;19.07;8.53;;;1.60;97.30;;;;;;4979792;28;20211;-83
2021/11/29 02:14:28;;;;;;;23.27;9.60;;;1.60;97.30;;;;;;4979059;28;20174;-84
2021/11/29 02:16:54;;;;;;;26.10;9.30;;;1.60;97.30;;;;;;4979072;28;20609;-84
2021/11/29 02:19:20;;;;;;;24.10;8.90;;;1.70;97.30;;;;;;4979078;28;20186;-84
2021/11/29 02:21:46;;;;;;;24.17;8.20;;;1.60;97.30;;;;;;4979243;28;20181;-83
2021/11/29 02:24:12;;;;;;;22.70;8.97;;;1.60;97.30;;;;;;4979797;28;20837;-84
2021/11/29 02:26:39;;;;;;;20.47;8.40;;;1.60;97.30;;;;;;4983572;28;20205;-84
2021/11/29 02:29:15;;;;;;;20.53;8.17;;;1.70;97.30;;;;;;4997598;28;20181;-84
2021/11/29 02:31:47;;;;;;;25.57;9.57;;;1.70;97.30;;;;;;4997791;28;20417;-84
2021/11/29 02:34:15;;;;;;;21.30;8.07;;;1.60;97.30;;;;;;4997369;28;20427;-84
2021/11/29 02:36:41;;;;;;;17.83;8.40;;;1.60;97.30;;;;;;4997354;28;20439;-84
2021/11/29 02:39:09;;;;;;;21.43;9.10;;;1.70;97.30;;;;;;4997348;28;20475;-84
2021/11/29 02:41:35;;;;;;;23.93;8.70;;;1.70;97.30;;;;;;4997717;28;20421;-84
2021/11/29 02:44:01;;;;;;;29.23;8.90;;;1.70;97.30;;;;;;4997612;28;20432;-84
2021/11/29 02:46:27;;;;;;;22.57;9.53;;;1.70;97.30;;;;;;4997239;28;20189;-84
2021/11/29 02:48:52;;;;;;;20.43;8.60;;;1.80;97.30;;;;;;4996943;28;20420;-84
2021/11/29 02:51:26;;;;;;;21.93;8.80;;;1.80;97.30;;;;;;4996638;28;20573;-84
2021/11/29 02:54:12;;;;;;;22.70;9.23;;;1.90;97.30;;;;;;4997894;28;20166;-84
2021/11/29 02:56:40;;;;;;;20.47;9.13;;;1.90;97.30;;;;;;4997128;28;20986;-84
2021/11/29 02:59:18;;;;;;;20.87;8.67;;;1.90;97.30;;;;;;4997689;28;20993;-84
2021/11/29 03:01:47;;;;;;;22.13;8.30;;;1.90;97.30;;;;;;4999060;28;20507;-84
2021/11/29 03:04:13;;;;;;;23.93;9.77;;;1.90;97.30;;;;;;4998330;28;20426;-84
2021/11/29 03:06:38;;;;;;;21.27;9.03;;;1.90;97.30;;;;;;4997157;28;20533;-84
2021/11/29 03:09:07;;;;;;;22.60;9.20;;;1.90;97.30;;;;;;4997608;28;20423;-83
2021/11/29 03:11:33;;;;;;;32.17;10.00;;;1.90;97.30;;;;;;4997103;28;20174;-85
2021/11/29 03:13:59;;;;;;;20.60;9.10;;;1.90;97.30;;;;;;4996857;28;20413;-84
2021/11/29 03:16:26;;;;;;;19.03;9.43;;;1.90;97.30;;;;;;4997174;28;21203;-84
2021/11/29 03:18:51;;;;;;;23.10;9.60;;;1.90;97.30;;;;;;4995552;28;20954;-83
2021/11/29 03:21:19;;;;;;;29.70;10.07;;;1.90;97.30;;;;;;4996880;28;20409;-84
2021/11/29 03:23:48;;;;;;;23.37;10.57;;;1.80;97.30;;;;;;4997294;28;20210;-84
2021/11/29 03:26:18;;;;;;;19.83;9.80;;;1.80;97.30;;;;;;4997192;28;20433;-84
2021/11/29 03:28:55;;;;;;;23.50;8.93;;;1.80;97.30;;;;;;4996948;28;21016;-84
2021/11/29 03:31:22;;;;;;;20.73;8.97;;;1.80;97.30;;;;;;4998468;28;20491;-84
2021/11/29 03:33:48;;;;;;;21.67;9.17;;;1.80;97.30;;;;;;4996939;28;20475;-84
2021/11/29 03:36:15;;;;;;;17.93;8.77;;;1.80;97.30;;;;;;4996912;28;20440;-84
2021/11/29 03:38:41;;;;;;;21.13;9.10;;;1.80;97.30;;;;;;4997094;28;20186;-84
2021/11/29 03:41:08;;;;;;;24.70;9.00;;;1.70;97.30;;;;;;4997605;28;20421;-84
2021/11/29 03:43:34;;;;;;;27.53;9.50;;;1.70;97.30;;;;;;4997827;28;20416;-84
2021/11/29 03:46:00;;;;;;;29.33;11.50;;;1.70;97.30;;;;;;4993596;28;20433;-84
2021/11/29 03:48:25;;;;;;;31.43;12.50;;;1.70;97.30;;;;;;4997013;28;20224;-84
2021/11/29 03:50:51;;;;;;;30.40;10.80;;;1.70;97.30;;;;;;4996737;28;20565;-84
2021/11/29 03:53:17;;;;;;;28.13;10.20;;;1.70;97.30;;;;;;4996805;28;20170;-84
2021/11/29 03:55:44;;;;;;;21.53;9.10;;;1.70;97.30;;;;;;4997462;28;20200;-84
2021/11/29 03:58:09;;;;;;;22.43;10.57;;;1.80;97.30;;;;;;4997419;28;20421;-83
2021/11/29 04:00:35;;;;;;;20.93;8.47;;;1.80;97.30;;;;;;4996122;28;20483;-83
2021/11/29 04:03:01;;;;;;;21.73;8.70;;;1.80;97.30;;;;;;4995972;28;20318;-83
2021/11/29 04:05:27;;;;;;;28.70;10.87;;;1.80;97.30;;;;;;4996364;28;20233;-83
2021/11/29 04:07:52;;;;;;;22.43;9.03;;;1.80;97.30;;;;;;4996931;28;20202;-84
2021/11/29 04:10:18;;;;;;;19.27;9.17;;;1.80;97.30;;;;;;4997280;28;20173;-84
2021/11/29 04:12:44;;;;;;;25.47;10.07;;;1.80;97.30;;;;;;4996617;28;20185;-84
2021/11/29 04:15:10;;;;;;;26.13;9.77;;;1.80;97.30;;;;;;4996287;28;20204;-84
2021/11/29 04:17:38;;;;;;;25.17;10.10;;;1.80;97.30;;;;;;4996122;28;20276;-83
2021/11/29 04:20:08;;;;;;;24.43;9.57;;;1.80;97.30;;;;;;4996446;28;20425;-83
2021/11/29 04:22:34;;;;;;;25.03;9.67;;;1.80;97.30;;;;;;4997478;28;20421;-83
2021/11/29 04:25:02;;;;;;;19.53;8.03;;;1.80;97.30;;;;;;4995966;28;20994;-83
2021/11/29 04:27:29;;;;;;;27.00;9.57;;;1.80;97.30;;;;;;4995602;28;20237;-84
2021/11/29 04:29:54;;;;;;;24.53;10.37;;;1.80;97.30;;;;;;4995846;28;20414;-84
2021/11/29 04:32:20;;;;;;;27.30;10.30;;;1.70;97.30;;;;;;4994856;28;20413;-84
2021/11/29 04:34:46;;;;;;;25.03;10.30;;;1.70;97.30;;;;;;4994167;28;20169;-84
2021/11/29 04:37:12;;;;;;;24.00;9.90;;;1.70;97.30;;;;;;4994960;28;20448;-84
2021/11/29 04:39:37;;;;;;;29.07;11.17;;;1.70;97.30;;;;;;5011992;28;20188;-84
2021/11/29 04:42:04;;;;;;;28.93;10.93;;;1.70;97.30;;;;;;4996309;28;20181;-83
2021/11/29 04:44:30;;;;;;;27.80;11.77;;;1.80;97.30;;;;;;4995785;28;20193;-83
2021/11/29 04:46:55;;;;;;;27.30;10.30;;;1.70;97.30;;;;;;4996019;28;20503;-83
2021/11/29 04:49:21;;;;;;;27.27;9.97;;;1.70;97.30;;;;;;4995823;28;21026;-84
2021/11/29 04:51:47;;;;;;;32.40;10.77;;;1.70;97.30;;;;;;5011963;28;20251;-83
2021/11/29 04:54:14;;;;;;;28.77;11.30;;;1.80;97.30;;;;;;4997967;28;20182;-84
2021/11/29 04:56:40;;;;;;;26.60;10.70;;;1.80;97.30;;;;;;4998701;28;20444;-83
2021/11/29 04:59:07;;;;;;;37.17;11.00;;;1.80;97.30;;;;;;5000396;28;20496;-83
2021/11/29 05:01:33;;;;;;;25.80;11.23;;;1.80;97.30;;;;;;4999929;28;21044;-84
2021/11/29 05:03:59;;;;;;;29.77;11.70;;;1.80;97.30;;;;;;4986012;28;20417;-84
2021/11/29 05:06:24;;;;;;;36.63;10.77;;;1.80;97.30;;;;;;4989392;28;20452;-83
2021/11/29 05:08:50;;;;;;;34.40;12.07;;;1.80;97.30;;;;;;5000567;28;20210;-83
2021/11/29 05:11:17;;;;;;;31.57;12.10;;;1.80;97.30;;;;;;4993760;28;20250;-83
2021/11/29 05:13:43;;;;;;;30.10;11.93;;;1.80;97.30;;;;;;4988748;28;20697;-83
2021/11/29 05:16:10;;;;;;;29.93;12.17;;;1.80;97.30;;;;;;4987937;28;20448;-84
2021/11/29 05:18:35;;;;;;;37.50;11.63;;;1.80;97.30;;;;;;4995409;28;20421;-83
2021/11/29 05:21:01;;;;;;;34.57;11.47;;;1.90;97.30;;;;;;4987267;28;20559;-83
2021/11/29 05:23:27;;;;;;;30.80;12.10;;;1.80;97.30;;;;;;4982164;28;20619;-84
2021/11/29 05:25:53;;;;;;;29.47;12.30;;;1.80;97.30;;;;;;4987814;28;20207;-84
2021/11/29 05:28:19;;;;;;;33.03;12.50;;;1.90;97.30;;;;;;4997870;28;20193;-84
2021/11/29 05:30:45;;;;;;;26.77;11.80;;;1.90;97.30;;;;;;4995744;28;20995;-83
2021/11/29 05:33:10;;;;;;;33.40;12.60;;;1.90;97.30;;;;;;4995627;28;20417;-83
2021/11/29 05:35:36;;;;;;;34.73;11.80;;;1.90;97.30;;;;;;4998600;28;20464;-84
2021/11/29 05:38:02;;;;;;;26.87;10.73;;;1.90;97.30;;;;;;4998889;28;20189;-83
2021/11/29 05:40:30;;;;;;;27.77;10.83;;;2.00;97.30;;;;;;4990178;28;20217;-84
2021/11/29 05:42:56;;;;;;;34.60;13.23;;;2.00;97.30;;;;;;4980665;28;20189;-84
2021/11/29 05:45:23;;;;;;;33.73;13.07;;;1.90;97.30;;;;;;4978909;28;20422;-84
2021/11/29 05:47:49;;;;;;;32.93;10.93;;;1.90;97.30;;;;;;4980007;28;20533;-84
2021/11/29 05:50:16;;;;;;;32.63;12.60;;;1.90;97.30;;;;;;4978170;28;20438;-84
2021/11/29 05:52:42;;;;;;;32.77;11.03;;;1.90;97.30;;;;;;4980219;28;20170;-83
2021/11/29 05:55:10;;;;;;;28.43;13.37;;;1.90;97.30;;;;;;4981858;28;20444;-83
2021/11/29 05:57:36;;;;;;;32.10;13.00;;;1.90;97.30;;;;;;4979778;28;20453;-84
2021/11/29 06:00:04;;;;;;;40.87;19.07;;;2.00;97.30;;;;;;4980087;28;20429;-84
2021/11/29 06:02:30;;;;;;;28.30;11.10;;;2.00;97.30;;;;;;4980420;28;20453;-83
2021/11/29 06:04:57;;;;;;;30.57;12.83;;;2.00;97.30;;;;;;4980396;28;20838;-82
2021/11/29 06:07:22;;;;;;;28.63;10.97;;;2.00;97.30;;;;;;4982384;28;20674;-83
2021/11/29 06:09:48;;;;;;;36.70;13.70;;;2.00;97.30;;;;;;4980700;28;20489;-84
2021/11/29 06:12:14;;;;;;;41.77;13.00;;;2.00;97.30;;;;;;4979703;28;20640;-83
2021/11/29 06:14:39;;;;;;;29.83;11.93;;;2.00;97.30;;;;;;4981517;28;20174;-84
2021/11/29 06:17:05;;;;;;;28.37;12.40;;;2.00;97.30;;;;;;4980015;28;20207;-84
2021/11/29 06:19:30;;;;;;;41.20;14.43;;;2.00;97.30;;;;;;4980553;28;20230;-84
2021/11/29 06:21:56;;;;;;;34.53;12.10;;;2.00;97.30;;;;;;4980563;28;20696;-83
2021/11/29 06:24:21;;;;;;;29.83;11.70;;;2.00;97.30;;;;;;4978456;28;20178;-83
2021/11/29 06:26:47;;;;;;;37.00;13.30;;;2.00;97.30;;;;;;4982297;28;20209;-83
2021/11/29 06:29:13;;;;;;;32.57;11.63;;;1.90;97.30;;;;;;4981184;28;20170;-84
2021/11/29 06:31:38;;;;;;;34.33;11.57;;;1.90;97.30;;;;;;4982414;28;20241;-84
2021/11/29 06:34:05;;;;;;;38.07;12.73;;;1.90;97.30;;;;;;4981638;28;20179;-84
2021/11/29 06:36:31;;;;;;;38.17;12.67;;;1.90;97.30;;;;;;4981147;28;20226;-84
2021/11/29 06:38:58;;;;;;;34.40;11.20;;;1.90;97.30;;;;;;4981202;28;20425;-84
2021/11/29 06:41:24;;;;;;;42.40;15.10;;;1.90;97.30;;;;;;4981409;28;20422;-84
2021/11/29 06:43:51;;;;;;;43.03;13.47;;;1.80;97.30;;;;;;4981235;28;20437;-84
2021/11/29 06:46:17;;;;;;;30.93;13.73;;;1.80;97.30;;;;;;5001400;28;20467;-84
2021/11/29 06:48:43;;;;;;;33.30;12.27;;;1.80;97.30;;;;;;4993621;28;20471;-84
2021/11/29 06:51:10;;;;;;;39.93;13.87;;;1.80;97.30;;;;;;4999056;28;20493;-84
2021/11/29 06:53:35;;;;;;;42.37;14.90;;;1.80;97.30;;;;;;4999085;28;21360;-84
2021/11/29 06:56:02;;;;;;;36.50;13.37;;;1.80;97.30;;;;;;4998798;28;20460;-85
2021/11/29 06:58:28;;;;;;;39.97;14.97;;;1.80;97.30;;;;;;4994467;28;20235;-83
2021/11/29 07:00:54;;;;;;;37.83;14.60;;;1.80;97.30;;;;;;4983129;28;20466;-82
2021/11/29 07:03:21;;;;;;;36.43;14.63;;;1.80;97.30;;;;;;4981396;28;20178;-83
2021/11/29 07:05:49;;;;;;;34.93;13.83;;;1.80;97.30;;;;;;4982505;28;20442;-82
2021/11/29 07:08:15;;;;;;;41.33;15.63;;;1.80;97.30;;;;;;4983811;28;21714;-82
2021/11/29 07:10:40;;;;;;;31.17;11.97;;;1.80;97.30;;;;;;4983476;28;20453;-81
2021/11/29 07:13:16;;;;;;;43.07;14.60;;;1.90;97.30;;;;;;4983722;28;20178;-82
2021/11/29 07:15:43;;;;;;;31.00;13.03;;;1.90;97.30;;;;;;4982696;28;20254;-81
2021/11/29 07:18:08;;;;;;;32.83;13.40;;;1.90;97.30;;;;;;4982023;28;20418;-82
2021/11/29 07:20:35;;;;;;;39.77;15.30;;;1.90;97.30;;;;;;4981290;28;20425;-82
2021/11/29 07:23:01;;;;;;;33.87;13.27;;;2.00;97.30;;;;;;4980751;28;20174;-82
2021/11/29 07:25:26;;;;;;;36.53;12.87;;;2.00;97.30;;;;;;4988885;28;20495;-82
2021/11/29 07:27:53;;;;;;;40.90;13.87;;;2.00;97.30;;;;;;5002689;28;20757;-82
2021/11/29 07:30:21;;;;;;;38.23;12.90;;;2.00;97.30;;;;;;4983731;28;20468;-82
2021/11/29 07:32:47;;;;;;;33.80;13.10;;;2.00;97.30;;;;;;4984367;28;20433;-82
2021/11/29 07:35:13;;;;;;;40.93;12.90;;;2.10;97.30;;;;;;4987142;28;20426;-79
2021/11/29 07:37:41;;;;;;;31.40;12.33;;;2.10;97.30;;;;;;5002627;28;20516;-82
2021/11/29 07:40:08;;;;;;;32.63;11.33;;;2.10;97.30;;;;;;5003708;28;20429;-82
2021/11/29 07:42:34;;;;;;;32.23;12.27;;;2.10;97.30;;;;;;5006256;28;20427;-82
2021/11/29 07:45:00;;;;;;;36.23;13.20;;;2.20;97.30;;;;;;5006046;28;20421;-82
2021/11/29 07:47:26;;;;;;;31.37;11.20;;;2.20;97.30;;;;;;5005802;28;20492;-82
2021/11/29 07:49:52;;;;;;;30.73;12.07;;;2.20;97.30;;;;;;5005639;28;20804;-81
2021/11/29 07:52:18;;;;;;;36.20;12.60;;;2.20;97.30;;;;;;5005807;28;20178;-82
2021/11/29 07:54:44;;;;;;;29.33;13.60;;;2.20;97.30;;;;;;5005147;28;20405;-82
2021/11/29 07:57:12;;;;;;;35.97;13.47;;;2.20;97.30;;;;;;5006237;28;20225;-81
2021/11/29 07:59:39;;;;;;;33.40;11.30;;;2.20;97.30;;;;;;5005787;28;20451;-82
2021/11/29 08:02:05;;;;;;;31.20;11.83;;;2.30;97.30;;;;;;5004843;28;20500;-82
2021/11/29 08:04:31;;;;;;;30.17;12.03;;;2.30;97.30;;;;;;5005233;28;20732;-81
2021/11/29 08:06:57;;;;;;;29.50;12.30;;;2.30;97.30;;;;;;5005981;28;20460;-82
2021/11/29 08:09:22;;;;;;;28.33;11.93;;;2.30;97.30;;;;;;5006200;28;20453;-82
2021/11/29 08:11:48;;;;;;;30.13;12.60;;;2.30;97.30;;;;;;5006112;28;20204;-82
2021/11/29 08:14:14;;;;;;;36.13;11.53;;;2.40;97.30;;;;;;5005876;28;20174;-82
2021/11/29 08:16:39;;;;;;;36.00;12.27;;;2.40;97.30;;;;;;5005511;28;20834;-82
2021/11/29 08:19:05;;;;;;;36.17;12.70;;;2.40;97.30;;;;;;5006179;28;20177;-82
2021/11/29 08:21:30;;;;;;;34.73;10.60;;;2.40;97.30;;;;;;5006014;28;20181;-81
2021/11/29 08:23:56;;;;;;;30.00;11.70;;;2.40;97.30;;;;;;5005836;28;20185;-82
2021/11/29 08:26:22;;;;;;;35.33;12.03;;;2.40;97.30;;;;;;5006735;28;20194;-81
2021/11/29 08:28:48;;;;;;;28.67;12.63;;;2.40;97.30;;;;;;5007439;28;20745;-82
2021/11/29 08:31:13;;;;;;;26.17;10.73;;;2.40;97.30;;;;;;5007113;28;20474;-82
2021/11/29 08:33:39;;;;;;;39.53;12.30;;;2.50;97.30;;;;;;5006729;28;20421;-80
2021/11/29 08:36:05;;;;;;;30.43;11.47;;;2.50;97.30;;;;;;5007483;28;20457;-81
2021/11/29 08:38:32;;;;;;;35.67;12.47;;;2.50;97.30;;;;;;5007595;28;20539;-80
2021/11/29 08:40:58;;;;;;;27.50;11.30;;;2.50;97.30;;;;;;5007361;28;20185;-81
2021/11/29 08:43:24;;;;;;;33.40;11.87;;;2.50;97.30;;;;;;5006720;28;21088;-81
2021/11/29 08:45:51;;;;;;;27.57;10.80;;;2.50;97.30;;;;;;5006544;28;20308;-81
2021/11/29 08:48:17;;;;;;;32.40;12.17;;;2.60;97.30;;;;;;5006134;28;20595;-81
2021/11/29 08:50:48;;;;;;;35.50;12.40;;;2.50;97.30;;;;;;5007545;28;20464;-81
2021/11/29 08:53:19;;;;;;;24.57;11.30;;;2.60;97.30;;;;;;5007034;28;20477;-81
2021/11/29 08:55:45;;;;;;;36.13;11.60;;;2.60;97.30;;;;;;5006706;28;20425;-79
2021/11/29 08:58:11;;;;;;;40.40;12.80;;;2.60;97.30;;;;;;5007017;28;20413;-81
2021/11/29 09:00:39;;;;;;;31.17;11.40;;;2.60;97.30;;;;;;5007352;28;20468;-81
2021/11/29 09:03:07;;;;;;;28.83;10.17;;;2.60;97.30;;;;;;5007284;28;20481;-81
2021/11/29 09:05:38;;;;;;;28.97;11.43;;;2.60;97.30;;;;;;5023809;28;20452;-82
2021/11/29 09:08:04;;;;;;;33.00;11.20;;;2.60;97.30;;;;;;5007091;28;20887;-81
2021/11/29 09:10:30;;;;;;;33.17;11.57;;;2.60;97.30;;;;;;5007465;28;20429;-81
2021/11/29 09:12:56;;;;;;;27.53;11.63;;;2.60;97.30;;;;;;5010085;28;20237;-81
2021/11/29 09:15:22;;;;;;;29.83;11.00;;;2.70;97.30;;;;;;5007833;28;20430;-81
2021/11/29 09:17:49;;;;;;;26.93;11.00;;;2.70;97.30;;;;;;5008232;28;20182;-80
2021/11/29 09:20:17;;;;;;;29.77;11.70;;;2.70;97.30;;;;;;5008067;28;20421;-81
2021/11/29 09:22:44;;;;;;;27.17;11.83;;;2.70;97.30;;;;;;5007607;28;20428;-81
2021/11/29 09:25:11;;;;;;;26.50;10.20;;;2.80;97.30;;;;;;5007203;28;20425;-81
2021/11/29 09:27:37;;;;;;;24.17;10.97;;;2.80;97.30;;;;;;5006874;28;20457;-80
2021/11/29 09:30:08;;;;;;;26.17;10.13;;;2.90;97.30;;;;;;4989651;28;20594;-81
2021/11/29 09:32:38;;;;;;;23.50;10.10;;;2.90;97.30;;;;;;4985327;28;20242;-80
2021/11/29 09:35:08;;;;;;;25.73;9.30;;;2.90;97.30;;;;;;4986078;28;20417;-81
2021/11/29 09:37:35;;;;;;;28.53;9.47;;;2.90;97.30;;;;;;4984653;28;20895;-81
2021/11/29 09:40:04;;;;;;;25.80;9.90;;;2.90;97.30;;;;;;4986506;28;20418;-81
2021/11/29 09:42:30;;;;;;;20.53;9.53;;;3.00;97.30;;;;;;4984714;28;20418;-82
2021/11/29 09:44:55;;;;;;;20.73;7.73;;;3.00;97.30;;;;;;4984748;28;20429;-80
2021/11/29 09:47:21;;;;;;;17.30;7.83;;;3.10;97.30;;;;;;4985378;28;20214;-81
2021/11/29 09:49:47;;;;;;;14.77;6.63;;;3.10;97.30;;;;;;4985350;28;20171;-81
2021/11/29 09:52:13;;;;;;;18.53;6.23;;;3.10;97.30;;;;;;4985288;28;20198;-81
2021/11/29 09:54:43;;;;;;;17.70;7.73;;;3.20;97.30;;;;;;4986229;28;20414;-81
2021/11/29 09:57:11;;;;;;;20.27;7.30;;;3.20;97.30;;;;;;4986685;28;20437;-81
2021/11/29 09:59:39;;;;;;;15.80;7.10;;;3.20;97.30;;;;;;4985838;28;20414;-81
2021/11/29 10:02:13;;;;;;;18.33;6.63;;;3.20;97.30;;;;;;4989171;28;20480;-81
2021/11/29 10:04:49;;;;;;;16.57;7.70;;;3.20;97.30;;;;;;4990449;28;20618;-80
2021/11/29 10:07:30;;;;;;;13.97;6.90;;;3.20;97.30;;;;;;4989112;28;20465;-80
2021/11/29 10:10:07;;;;;;;20.60;8.10;;;3.30;97.30;;;;;;4989149;28;20472;-81
2021/11/29 10:12:34;;;;;;;25.03;7.50;;;3.30;97.30;;;;;;4989247;28;20421;-81
2021/11/29 10:15:13;;;;;;;18.43;7.40;;;3.30;97.30;;;;;;4990050;28;20414;-79
2021/11/29 10:17:41;;;;;;;24.07;7.97;;;3.40;97.30;;;;;;4990433;28;20424;-79
2021/11/29 10:20:07;;;;;;;19.63;7.83;;;3.40;97.30;;;;;;4989578;28;20449;-81
2021/11/29 10:22:34;;;;;;;18.10;7.60;;;3.40;97.30;;;;;;4989505;28;20831;-80
2021/11/29 10:25:14;;;;;;;22.60;8.17;;;3.40;97.30;;;;;;4989441;28;21090;-81
2021/11/29 10:27:42;;;;;;;16.03;7.53;;;3.40;97.30;;;;;;4989501;28;20978;-81
2021/11/29 10:30:10;;;;;;;21.03;7.97;;;3.40;97.30;;;;;;5008587;28;20479;-79
2021/11/29 10:32:48;;;;;;;20.70;8.67;;;3.40;97.30;;;;;;5009035;28;20471;-82
2021/11/29 10:35:23;;;;;;;19.77;8.73;;;3.40;97.30;;;;;;5008395;28;20891;-81
2021/11/29 10:37:51;;;;;;;22.33;7.83;;;3.40;97.30;;;;;;5008430;28;20416;-80
2021/11/29 10:40:19;;;;;;;20.60;8.67;;;3.40;97.30;;;;;;5008529;28;20468;-81
2021/11/29 10:42:46;;;;;;;20.30;8.40;;;3.40;97.30;;;;;;5009768;28;20484;-79
2021/11/29 10:45:26;;;;;;;18.40;7.40;;;3.50;97.30;;;;;;4997281;28;20426;-81
2021/11/29 10:47:54;;;;;;;20.87;7.93;;;3.50;97.30;;;;;;5003476;28;20469;-81
2021/11/29 10:50:32;;;;;;;20.93;8.10;;;3.50;97.30;;;;;;4995877;28;20961;-80
2021/11/29 10:53:12;;;;;;;16.57;6.70;;;3.60;97.30;;;;;;5000631;28;20443;-80
2021/11/29 10:56:03;;;;;;;19.10;6.73;;;3.50;97.30;;;;;;5007397;28;20433;-81
2021/11/29 10:58:45;;;;;;;12.77;6.20;;;3.50;97.30;;;;;;5006761;28;20464;-80
2021/11/29 11:01:16;;;;;;;12.40;6.17;;;3.50;97.30;;;;;;5008108;28;20500;-81
2021/11/29 11:03:56;;;;;;;15.90;7.30;;;3.50;97.30;;;;;;5006621;28;20520;-77
2021/11/29 11:06:36;;;;;;;14.50;6.10;;;3.50;97.30;;;;;;5007712;28;20475;-81
2021/11/29 11:09:12;;;;;;;15.73;6.63;;;3.60;97.30;;;;;;5008063;28;20464;-81
2021/11/29 11:11:41;;;;;;;14.80;5.67;;;3.60;97.30;;;;;;5007453;28;20413;-81
2021/11/29 11:14:16;;;;;;;10.90;5.40;;;3.70;97.30;;;;;;5007409;28;20437;-81
2021/11/29 11:16:51;;;;;;;12.00;5.60;;;3.70;97.30;;;;;;5006485;28;20444;-80
2021/11/29 11:19:27;;;;;;;10.10;5.90;;;3.70;97.30;;;;;;5008323;28;20409;-80
2021/11/29 11:21:58;;;;;;;12.10;6.10;;;3.70;97.30;;;;;;5006368;28;20421;-79
2021/11/29 11:24:33;;;;;;;9.93;5.00;;;3.70;97.30;;;;;;5005782;28;20424;-80
2021/11/29 11:27:00;;;;;;;8.10;4.67;;;3.70;97.30;;;;;;5005160;28;20432;-79
2021/11/29 11:29:34;;;;;;;13.90;5.77;;;3.70;97.30;;;;;;5002985;28;21046;-80
2021/11/29 11:32:20;;;;;;;12.87;4.90;;;3.60;97.30;;;;;;5005807;28;20476;-80
2021/11/29 11:34:50;;;;;;;10.33;5.30;;;3.60;97.30;;;;;;5003764;28;20424;-81
2021/11/29 11:37:18;;;;;;;12.53;5.50;;;3.60;97.30;;;;;;5005905;28;20508;-81
2021/11/29 11:39:46;;;;;;;11.73;5.43;;;3.60;97.30;;;;;;5005720;28;20428;-81
2021/11/29 11:42:11;;;;;;;14.10;5.53;;;3.70;97.30;;;;;;5003293;28;20783;-76
2021/11/29 11:44:39;;;;;;;15.50;5.60;;;3.60;97.30;;;;;;5001847;28;20413;-81
2021/11/29 11:47:06;;;;;;;12.50;5.43;;;3.60;97.30;;;;;;5006189;28;20460;-79
2021/11/29 11:49:36;;;;;;;12.90;6.10;;;3.60;97.30;;;;;;5002680;28;20412;-79
2021/11/29 11:52:03;;;;;;;12.97;5.90;;;3.60;97.30;;;;;;5001118;28;20455;-80
2021/11/29 11:54:29;;;;;;;11.40;5.10;;;3.60;97.30;;;;;;5003028;28;20393;-80
2021/11/29 11:56:54;;;;;;;8.30;4.50;;;3.60;97.30;;;;;;5005482;28;20467;-80
2021/11/29 11:59:26;;;;;;;10.77;5.00;;;3.60;97.30;;;;;;5003527;28;20173;-80
2021/11/29 12:01:56;;;;;;;13.60;5.63;;;3.60;97.30;;;;;;5003005;28;20225;-79
2021/11/29 12:04:22;;;;;;;17.73;5.00;;;3.60;97.30;;;;;;5007262;28;20406;-81
2021/11/29 12:06:48;;;;;;;11.57;6.53;;;3.60;97.30;;;;;;5006309;28;20440;-79
2021/11/29 12:09:15;;;;;;;12.20;5.00;;;3.60;97.30;;;;;;5004110;28;20217;-80
2021/11/29 12:11:44;;;;;;;13.90;6.47;;;3.60;97.30;;;;;;5006999;28;20431;-80
2021/11/29 12:14:24;;;;;;;12.27;5.10;;;3.70;97.30;;;;;;5006829;28;20411;-81
2021/11/29 12:17:16;;;;;;;11.23;5.57;;;3.70;97.30;;;;;;5005294;28;20452;-81
2021/11/29 12:19:43;;;;;;;10.43;4.97;;;3.70;97.30;;;;;;5004731;28;20424;-80
2021/11/29 12:22:21;;;;;;;13.07;5.50;;;3.60;97.30;;;;;;5005732;28;20417;-80
2021/11/29 12:24:55;;;;;;;7.27;4.47;;;3.70;97.30;;;;;;5005041;28;20441;-81
2021/11/29 12:27:20;;;;;;;9.90;4.73;;;3.70;97.30;;;;;;5003099;28;20547;-81
2021/11/29 12:29:50;;;;;;;8.20;4.97;;;3.70;97.30;;;;;;5006253;28;20441;-81
2021/11/29 12:32:18;;;;;;;8.53;4.73;;;3.70;97.30;;;;;;5006680;28;20170;-81
2021/11/29 12:34:44;;;;;;;9.73;4.30;;;3.70;97.30;;;;;;5007011;28;20413;-81
2021/11/29 12:37:27;;;;;;;11.20;4.93;;;3.80;97.30;;;;;;5005523;28;20487;-78
2021/11/29 12:39:57;;;;;;;16.53;5.00;;;3.80;97.30;;;;;;5006106;28;20515;-81
2021/11/29 12:42:26;;;;;;;11.13;5.07;;;3.80;97.30;;;;;;5003485;28;20421;-81
2021/11/29 12:45:12;;;;;;;10.10;4.67;;;3.80;97.30;;;;;;5005641;28;20425;-82